sensor_id;sensor_type;location;lat;lon;timestamp;pressure;altitude;pressure_sealevel;temperature;humidity
32131;BME280;18639;50.716;7.086;2023-03-25T00:01:02;99307.16;;;10.15;100.00
32131;BME280;18639;50.716;7.086;2023-03-25T00:03:30;99329.81;;;10.23;100.00
32131;BME280;18639;50.716;7.086;2023-03-25T00:05:58;99336.13;;;10.30;100.00
32131;BME280;18639;50.716;7.086;2023-03-25T00:08:24;99319.47;;;10.12;100.00
32131;BME280;18639;50.716;7.086;2023-03-25T00:10:51;99320.41;;;10.11;100.00
32131;BME280;18639;50.716;7.086;2023-03-25T00:13:17;99309.88;;;10.03;100.00
32131;BME280;18639;50.716;7.086;2023-03-25T00:15:43;99339.69;;;10.07;100.00
32131;BME280;18639;50.716;7.086;2023-03-25T00:18:12;99331.38;;;10.03;100.00
32131;BME280;18639;50.716;7.086;2023-03-25T00:20:37;99325.03;;;9.96;100.00
32131;BME280;18639;50.716;7.086;2023-03-25T00:23:05;99323.41;;;9.84;100.00
32131;BME280;18639;50.716;7.086;2023-03-25T00:25:31;99333.50;;;9.98;100.00
32131;BME280;18639;50.716;7.086;2023-03-25T00:27:58;99330.09;;;9.87;100.00
32131;BME280;18639;50.716;7.086;2023-03-25T00:30:23;99340.63;;;9.84;100.00
32131;BME280;18639;50.716;7.086;2023-03-25T00:32:48;99339.03;;;9.83;100.00
32131;BME280;18639;50.716;7.086;2023-03-25T00:35:22;99346.50;;;9.86;100.00
32131;BME280;18639;50.716;7.086;2023-03-25T00:37:48;99321.09;;;9.70;100.00
32131;BME280;18639;50.716;7.086;2023-03-25T00:40:22;99344.03;;;9.84;100.00
32131;BME280;18639;50.716;7.086;2023-03-25T00:42:47;99323.31;;;9.63;100.00
32131;BME280;18639;50.716;7.086;2023-03-25T00:45:15;99339.97;;;9.82;100.00
32131;BME280;18639;50.716;7.086;2023-03-25T00:47:40;99339.47;;;9.88;100.00
32131;BME280;18639;50.716;7.086;2023-03-25T00:50:06;99339.47;;;9.88;100.00
32131;BME280;18639;50.716;7.086;2023-03-25T00:52:31;99309.47;;;9.76;100.00
32131;BME280;18639;50.716;7.086;2023-03-25T00:54:57;99328.91;;;9.91;100.00
32131;BME280;18639;50.716;7.086;2023-03-25T00:57:22;99305.94;;;9.88;100.00
32131;BME280;18639;50.716;7.086;2023-03-25T00:59:47;99326.56;;;9.99;100.00
32131;BME280;18639;50.716;7.086;2023-03-25T01:02:13;99270.31;;;9.70;100.00
32131;BME280;18639;50.716;7.086;2023-03-25T01:04:40;99313.88;;;10.07;100.00
32131;BME280;18639;50.716;7.086;2023-03-25T01:07:06;99311.75;;;10.12;100.00
32131;BME280;18639;50.716;7.086;2023-03-25T01:09:32;99315.25;;;10.11;100.00
32131;BME280;18639;50.716;7.086;2023-03-25T01:11:57;99270.97;;;9.84;100.00
32131;BME280;18639;50.716;7.086;2023-03-25T01:14:22;99295.59;;;9.99;100.00
32131;BME280;18639;50.716;7.086;2023-03-25T01:16:54;99321.94;;;10.13;100.00
32131;BME280;18639;50.716;7.086;2023-03-25T01:19:20;99316.66;;;10.15;100.00
32131;BME280;18639;50.716;7.086;2023-03-25T01:21:46;99304.09;;;10.10;100.00
32131;BME280;18639;50.716;7.086;2023-03-25T01:24:13;99305.19;;;10.08;100.00
32131;BME280;18639;50.716;7.086;2023-03-25T01:26:39;99317.28;;;10.19;100.00
32131;BME280;18639;50.716;7.086;2023-03-25T01:29:09;99319.22;;;10.26;100.00
32131;BME280;18639;50.716;7.086;2023-03-25T01:31:35;99316.09;;;10.23;100.00
32131;BME280;18639;50.716;7.086;2023-03-25T01:34:00;99318.06;;;10.30;100.00
32131;BME280;18639;50.716;7.086;2023-03-25T01:36:26;99321.22;;;10.34;100.00
32131;BME280;18639;50.716;7.086;2023-03-25T01:38:55;99322.25;;;10.31;100.00
32131;BME280;18639;50.716;7.086;2023-03-25T01:41:23;99307.03;;;10.28;100.00
32131;BME280;18639;50.716;7.086;2023-03-25T01:44:06;99308.19;;;10.35;100.00
32131;BME280;18639;50.716;7.086;2023-03-25T01:46:32;99294.38;;;10.25;100.00
32131;BME280;18639;50.716;7.086;2023-03-25T01:48:59;99309.34;;;10.31;100.00
32131;BME280;18639;50.716;7.086;2023-03-25T01:51:29;99301.59;;;10.31;100.00
32131;BME280;18639;50.716;7.086;2023-03-25T01:53:56;99310.06;;;10.33;100.00
32131;BME280;18639;50.716;7.086;2023-03-25T01:56:26;99308.75;;;10.39;100.00
32131;BME280;18639;50.716;7.086;2023-03-25T01:58:55;99296.22;;;10.34;100.00
32131;BME280;18639;50.716;7.086;2023-03-25T02:01:22;99295.84;;;10.39;100.00
32131;BME280;18639;50.716;7.086;2023-03-25T02:03:50;99299.72;;;10.33;100.00
32131;BME280;18639;50.716;7.086;2023-03-25T02:06:26;99302.13;;;10.25;100.00
32131;BME280;18639;50.716;7.086;2023-03-25T02:08:55;99311.03;;;10.21;100.00
32131;BME280;18639;50.716;7.086;2023-03-25T02:11:21;99291.56;;;10.17;100.00
32131;BME280;18639;50.716;7.086;2023-03-25T02:13:50;99280.75;;;10.12;100.00
32131;BME280;18639;50.716;7.086;2023-03-25T02:36:22;99276.78;;;10.19;100.00
32131;BME280;18639;50.716;7.086;2023-03-25T02:39:08;99292.72;;;10.24;100.00
32131;BME280;18639;50.716;7.086;2023-03-25T02:41:40;99296.97;;;10.25;100.00
32131;BME280;18639;50.716;7.086;2023-03-25T02:44:15;99273.94;;;10.11;100.00
32131;BME280;18639;50.716;7.086;2023-03-25T02:46:46;99268.78;;;10.11;100.00
32131;BME280;18639;50.716;7.086;2023-03-25T02:49:24;99282.19;;;10.16;100.00
32131;BME280;18639;50.716;7.086;2023-03-25T02:51:56;99294.88;;;10.19;100.00
32131;BME280;18639;50.716;7.086;2023-03-25T02:54:26;99278.66;;;10.06;100.00
32131;BME280;18639;50.716;7.086;2023-03-25T02:56:54;99298.00;;;10.23;100.00
32131;BME280;18639;50.716;7.086;2023-03-25T02:59:23;99289.22;;;10.14;100.00
32131;BME280;18639;50.716;7.086;2023-03-25T03:01:50;99256.63;;;10.02;100.00
32131;BME280;18639;50.716;7.086;2023-03-25T03:04:23;99267.41;;;10.07;100.00
32131;BME280;18639;50.716;7.086;2023-03-25T03:06:48;99282.19;;;10.16;100.00
32131;BME280;18639;50.716;7.086;2023-03-25T03:09:28;99288.75;;;10.20;100.00
32131;BME280;18639;50.716;7.086;2023-03-25T03:15:16;99281.59;;;10.12;100.00
32131;BME280;18639;50.716;7.086;2023-03-25T03:18:56;99289.00;;;10.17;100.00
32131;BME280;18639;50.716;7.086;2023-03-25T03:21:07;99289.00;;;10.17;100.00
32131;BME280;18639;50.716;7.086;2023-03-25T03:24:03;99258.66;;;9.98;100.00
32131;BME280;18639;50.716;7.086;2023-03-25T03:29:38;99295.44;;;10.11;100.00
32131;BME280;18639;50.716;7.086;2023-03-25T03:32:12;99286.41;;;10.06;100.00
32131;BME280;18639;50.716;7.086;2023-03-25T03:35:00;99290.16;;;10.13;100.00
32131;BME280;18639;50.716;7.086;2023-03-25T03:37:34;99286.66;;;10.03;100.00
32131;BME280;18639;50.716;7.086;2023-03-25T03:40:04;99291.34;;;10.09;100.00
32131;BME280;18639;50.716;7.086;2023-03-25T03:42:34;99285.59;;;10.05;100.00
32131;BME280;18639;50.716;7.086;2023-03-25T03:45:06;99277.28;;;10.02;100.00
32131;BME280;18639;50.716;7.086;2023-03-25T03:47:36;99290.63;;;10.07;99.44
32131;BME280;18639;50.716;7.086;2023-03-25T03:50:15;99284.44;;;9.98;99.00
32131;BME280;18639;50.716;7.086;2023-03-25T03:52:55;99282.13;;;9.84;99.87
32131;BME280;18639;50.716;7.086;2023-03-25T03:55:29;99275.13;;;9.75;100.00
32131;BME280;18639;50.716;7.086;2023-03-25T03:58:05;99298.09;;;9.67;100.00
32131;BME280;18639;50.716;7.086;2023-03-25T04:01:07;99290.69;;;9.73;100.00
32131;BME280;18639;50.716;7.086;2023-03-25T04:06:37;99285.44;;;9.64;100.00
32131;BME280;18639;50.716;7.086;2023-03-25T04:09:24;99304.78;;;9.81;100.00
32131;BME280;18639;50.716;7.086;2023-03-25T04:12:34;99299.63;;;9.81;100.00
32131;BME280;18639;50.716;7.086;2023-03-25T04:15:04;99290.94;;;9.70;100.00
32131;BME280;18639;50.716;7.086;2023-03-25T04:17:30;99292.25;;;9.65;100.00
32131;BME280;18639;50.716;7.086;2023-03-25T04:19:57;99302.69;;;9.63;100.00
32131;BME280;18639;50.716;7.086;2023-03-25T04:22:22;99283.81;;;9.52;100.00
32131;BME280;18639;50.716;7.086;2023-03-25T04:24:48;99303.03;;;9.59;100.00
32131;BME280;18639;50.716;7.086;2023-03-25T04:27:16;99310.41;;;9.63;100.00
32131;BME280;18639;50.716;7.086;2023-03-25T04:29:42;99291.53;;;9.52;99.37
32131;BME280;18639;50.716;7.086;2023-03-25T04:32:11;99309.59;;;9.63;99.33
32131;BME280;18639;50.716;7.086;2023-03-25T04:34:37;99309.72;;;9.61;99.17
32131;BME280;18639;50.716;7.086;2023-03-25T04:37:03;99305.50;;;9.60;98.89
32131;BME280;18639;50.716;7.086;2023-03-25T04:39:28;99309.47;;;9.64;98.27
32131;BME280;18639;50.716;7.086;2023-03-25T04:41:57;99306.78;;;9.66;98.90
32131;BME280;18639;50.716;7.086;2023-03-25T04:44:26;99296.84;;;9.61;99.41
32131;BME280;18639;50.716;7.086;2023-03-25T04:46:53;99306.66;;;9.56;98.46
32131;BME280;18639;50.716;7.086;2023-03-25T04:49:21;99312.88;;;9.54;99.19
32131;BME280;18639;50.716;7.086;2023-03-25T04:51:48;99318.41;;;9.60;97.47
32131;BME280;18639;50.716;7.086;2023-03-25T04:54:18;99322.13;;;9.67;96.85
32131;BME280;18639;50.716;7.086;2023-03-25T04:56:45;99317.94;;;9.66;96.86
32131;BME280;18639;50.716;7.086;2023-03-25T04:59:12;99305.25;;;9.63;97.06
32131;BME280;18639;50.716;7.086;2023-03-25T05:01:38;99312.78;;;9.66;96.19
32131;BME280;18639;50.716;7.086;2023-03-25T05:04:07;99317.22;;;9.64;95.96
32131;BME280;18639;50.716;7.086;2023-03-25T05:06:47;99307.84;;;9.52;96.10
32131;BME280;18639;50.716;7.086;2023-03-25T05:09:16;99315.22;;;9.57;96.26
32131;BME280;18639;50.716;7.086;2023-03-25T05:11:43;99299.53;;;9.49;96.25
32131;BME280;18639;50.716;7.086;2023-03-25T05:14:10;99318.03;;;9.54;96.55
32131;BME280;18639;50.716;7.086;2023-03-25T05:16:36;99308.56;;;9.43;96.53
32131;BME280;18639;50.716;7.086;2023-03-25T05:19:01;99310.56;;;9.51;97.13
32131;BME280;18639;50.716;7.086;2023-03-25T05:21:28;99302.31;;;9.46;97.52
32131;BME280;18639;50.716;7.086;2023-03-25T05:23:54;99311.59;;;9.48;97.99
32131;BME280;18639;50.716;7.086;2023-03-25T05:26:19;99308.56;;;9.43;97.42
32131;BME280;18639;50.716;7.086;2023-03-25T05:28:51;99313.94;;;9.51;96.58
32131;BME280;18639;50.716;7.086;2023-03-25T05:31:20;99290.03;;;9.38;97.02
32131;BME280;18639;50.716;7.086;2023-03-25T05:33:46;99314.63;;;9.53;98.76
32131;BME280;18639;50.716;7.086;2023-03-25T05:36:12;99327.19;;;9.58;97.79
32131;BME280;18639;50.716;7.086;2023-03-25T05:38:41;99326.81;;;9.62;98.17
32131;BME280;18639;50.716;7.086;2023-03-25T05:41:08;99327.53;;;9.64;98.36
32131;BME280;18639;50.716;7.086;2023-03-25T05:43:40;99302.47;;;9.55;98.60
32131;BME280;18639;50.716;7.086;2023-03-25T05:46:10;99308.19;;;9.59;98.43
32131;BME280;18639;50.716;7.086;2023-03-25T05:48:36;99305.50;;;9.60;98.63
32131;BME280;18639;50.716;7.086;2023-03-25T05:51:03;99315.22;;;9.68;98.35
32131;BME280;18639;50.716;7.086;2023-03-25T05:53:30;99316.03;;;9.57;98.16
32131;BME280;18639;50.716;7.086;2023-03-25T05:55:58;99312.53;;;9.58;98.23
32131;BME280;18639;50.716;7.086;2023-03-25T05:58:23;99309.00;;;9.59;98.44
32131;BME280;18639;50.716;7.086;2023-03-25T06:00:49;99301.28;;;9.59;98.32
32131;BME280;18639;50.716;7.086;2023-03-25T06:03:14;99306.91;;;9.64;98.94
32131;BME280;18639;50.716;7.086;2023-03-25T06:05:42;99318.72;;;9.67;98.18
32131;BME280;18639;50.716;7.086;2023-03-25T06:08:07;99315.44;;;9.76;98.39
32131;BME280;18639;50.716;7.086;2023-03-25T06:10:32;99291.31;;;9.77;98.81
32131;BME280;18639;50.716;7.086;2023-03-25T06:12:58;99293.41;;;9.72;97.28
32131;BME280;18639;50.716;7.086;2023-03-25T06:15:23;99305.22;;;9.86;97.28
32131;BME280;18639;50.716;7.086;2023-03-25T06:17:58;99318.34;;;9.94;97.70
32131;BME280;18639;50.716;7.086;2023-03-25T06:20:24;99304.97;;;10.00;96.73
32131;BME280;18639;50.716;7.086;2023-03-25T06:22:49;99288.56;;;9.90;96.03
32131;BME280;18639;50.716;7.086;2023-03-25T06:25:17;99298.41;;;9.96;96.73
32131;BME280;18639;50.716;7.086;2023-03-25T06:27:43;99299.59;;;9.92;95.71
32131;BME280;18639;50.716;7.086;2023-03-25T06:30:14;99304.50;;;9.95;95.23
32131;BME280;18639;50.716;7.086;2023-03-25T06:32:40;99306.22;;;10.05;96.48
32131;BME280;18639;50.716;7.086;2023-03-25T06:35:08;99324.38;;;10.15;95.46
32131;BME280;18639;50.716;7.086;2023-03-25T06:37:37;99311.84;;;10.10;93.83
32131;BME280;18639;50.716;7.086;2023-03-25T06:40:03;99316.66;;;10.26;94.34
32131;BME280;18639;50.716;7.086;2023-03-25T06:42:30;99322.13;;;10.44;93.89
32131;BME280;18639;50.716;7.086;2023-03-25T06:44:56;99339.00;;;10.48;93.25
32131;BME280;18639;50.716;7.086;2023-03-25T06:47:21;99316.13;;;10.43;93.43
32131;BME280;18639;50.716;7.086;2023-03-25T06:49:47;99320.63;;;10.62;94.03
32131;BME280;18639;50.716;7.086;2023-03-25T06:52:12;99328.56;;;10.70;93.90
32131;BME280;18639;50.716;7.086;2023-03-25T06:54:38;99316.34;;;10.72;93.45
32131;BME280;18639;50.716;7.086;2023-03-25T06:57:04;99318.13;;;10.72;92.88
32131;BME280;18639;50.716;7.086;2023-03-25T06:59:30;99299.47;;;10.68;93.18
32131;BME280;18639;50.716;7.086;2023-03-25T07:01:56;99323.16;;;10.73;93.33
32131;BME280;18639;50.716;7.086;2023-03-25T07:04:21;99323.06;;;10.64;94.16
32131;BME280;18639;50.716;7.086;2023-03-25T07:06:47;99350.56;;;10.65;97.28
32131;BME280;18639;50.716;7.086;2023-03-25T07:09:12;99327.84;;;10.47;100.00
32131;BME280;18639;50.716;7.086;2023-03-25T07:11:38;99328.03;;;10.35;100.00
32131;BME280;18639;50.716;7.086;2023-03-25T07:14:04;99327.94;;;10.25;100.00
32131;BME280;18639;50.716;7.086;2023-03-25T07:16:29;99331.94;;;10.18;100.00
32131;BME280;18639;50.716;7.086;2023-03-25T07:18:55;99332.97;;;10.04;100.00
32131;BME280;18639;50.716;7.086;2023-03-25T07:21:21;99325.56;;;10.11;100.00
32131;BME280;18639;50.716;7.086;2023-03-25T07:23:47;99336.63;;;10.02;100.00
32131;BME280;18639;50.716;7.086;2023-03-25T07:26:12;99333.59;;;9.97;100.00
32131;BME280;18639;50.716;7.086;2023-03-25T07:28:39;99334.41;;;10.08;100.00
32131;BME280;18639;50.716;7.086;2023-03-25T07:31:13;99336.28;;;10.06;100.00
32131;BME280;18639;50.716;7.086;2023-03-25T07:33:38;99350.84;;;10.19;100.00
32131;BME280;18639;50.716;7.086;2023-03-25T07:36:05;99316.66;;;10.15;100.00
32131;BME280;18639;50.716;7.086;2023-03-25T07:38:32;99315.72;;;10.27;100.00
32131;BME280;18639;50.716;7.086;2023-03-25T07:40:57;99362.03;;;10.40;100.00
32131;BME280;18639;50.716;7.086;2023-03-25T07:43:22;99354.31;;;10.29;100.00
32131;BME280;18639;50.716;7.086;2023-03-25T07:45:48;99316.84;;;9.80;100.00
32131;BME280;18639;50.716;7.086;2023-03-25T07:48:13;99367.03;;;9.87;100.00
32131;BME280;18639;50.716;7.086;2023-03-25T07:50:43;99346.16;;;9.79;100.00
32131;BME280;18639;50.716;7.086;2023-03-25T07:53:11;99317.94;;;9.55;100.00
32131;BME280;18639;50.716;7.086;2023-03-25T07:55:37;99348.38;;;9.72;100.00
32131;BME280;18639;50.716;7.086;2023-03-25T07:58:02;99342.28;;;9.40;100.00
32131;BME280;18639;50.716;7.086;2023-03-25T08:00:28;99318.63;;;9.24;100.00
32131;BME280;18639;50.716;7.086;2023-03-25T08:02:54;99316.94;;;9.01;100.00
32131;BME280;18639;50.716;7.086;2023-03-25T08:05:20;99366.19;;;9.31;100.00
32131;BME280;18639;50.716;7.086;2023-03-25T08:07:49;99335.69;;;9.03;100.00
32131;BME280;18639;50.716;7.086;2023-03-25T08:10:15;99366.50;;;9.15;100.00
32131;BME280;18639;50.716;7.086;2023-03-25T08:12:42;99383.41;;;9.30;100.00
32131;BME280;18639;50.716;7.086;2023-03-25T08:15:08;99400.63;;;9.30;100.00
32131;BME280;18639;50.716;7.086;2023-03-25T08:17:33;99354.81;;;9.22;100.00
32131;BME280;18639;50.716;7.086;2023-03-25T08:19:59;99339.91;;;9.15;100.00
32131;BME280;18639;50.716;7.086;2023-03-25T08:22:25;99340.66;;;9.28;98.85
32131;BME280;18639;50.716;7.086;2023-03-25T08:25:14;99390.63;;;9.71;98.65
32131;BME280;18639;50.716;7.086;2023-03-25T08:27:39;99378.19;;;9.77;98.75
32131;BME280;18639;50.716;7.086;2023-03-25T08:30:05;99394.19;;;10.47;97.55
32131;BME280;18639;50.716;7.086;2023-03-25T08:32:33;99370.53;;;11.15;94.89
32131;BME280;18639;50.716;7.086;2023-03-25T08:35:00;99363.00;;;11.84;91.49
32131;BME280;18639;50.716;7.086;2023-03-25T08:37:28;99380.84;;;12.37;84.84
32131;BME280;18639;50.716;7.086;2023-03-25T08:39:54;99376.91;;;13.00;85.22
32131;BME280;18639;50.716;7.086;2023-03-25T08:42:20;99381.78;;;13.32;78.93
32131;BME280;18639;50.716;7.086;2023-03-25T08:44:45;99317.38;;;13.18;76.08
32131;BME280;18639;50.716;7.086;2023-03-25T08:47:10;99379.38;;;13.95;77.01
32131;BME280;18639;50.716;7.086;2023-03-25T08:49:36;99371.50;;;14.14;72.62
32131;BME280;18639;50.716;7.086;2023-03-25T08:52:01;99384.06;;;14.46;72.04
32131;BME280;18639;50.716;7.086;2023-03-25T08:54:28;99397.28;;;14.70;68.91
32131;BME280;18639;50.716;7.086;2023-03-25T08:56:54;99405.22;;;15.04;66.79
32131;BME280;18639;50.716;7.086;2023-03-25T08:59:20;99404.19;;;15.40;64.53
32131;BME280;18639;50.716;7.086;2023-03-25T09:01:46;99415.69;;;16.15;60.24
32131;BME280;18639;50.716;7.086;2023-03-25T09:04:11;99390.97;;;16.27;59.62
32131;BME280;18639;50.716;7.086;2023-03-25T09:06:37;99339.59;;;16.12;58.15
32131;BME280;18639;50.716;7.086;2023-03-25T09:09:03;99367.31;;;15.79;58.82
32131;BME280;18639;50.716;7.086;2023-03-25T09:11:32;99334.50;;;15.34;61.10
32131;BME280;18639;50.716;7.086;2023-03-25T09:13:57;99400.00;;;15.22;63.22
32131;BME280;18639;50.716;7.086;2023-03-25T09:16:23;99418.47;;;14.57;64.84
32131;BME280;18639;50.716;7.086;2023-03-25T09:18:48;99412.00;;;14.34;67.43
32131;BME280;18639;50.716;7.086;2023-03-25T09:21:13;99380.16;;;14.05;69.07
32131;BME280;18639;50.716;7.086;2023-03-25T09:23:39;99370.38;;;13.52;69.09
32131;BME280;18639;50.716;7.086;2023-03-25T09:26:04;99397.03;;;13.54;67.50
32131;BME280;18639;50.716;7.086;2023-03-25T09:28:30;99403.19;;;13.53;69.25
32131;BME280;18639;50.716;7.086;2023-03-25T09:30:56;99400.59;;;13.53;69.34
32131;BME280;18639;50.716;7.086;2023-03-25T09:33:21;99402.13;;;13.46;72.12
32131;BME280;18639;50.716;7.086;2023-03-25T09:35:48;99397.34;;;13.32;68.62
32131;BME280;18639;50.716;7.086;2023-03-25T09:38:13;99378.53;;;13.11;69.67
32131;BME280;18639;50.716;7.086;2023-03-25T09:40:43;99397.41;;;13.13;70.67
32131;BME280;18639;50.716;7.086;2023-03-25T09:45:47;99370.78;;;12.91;70.12
32131;BME280;18639;50.716;7.086;2023-03-25T09:48:36;99398.75;;;12.97;73.61
32131;BME280;18639;50.716;7.086;2023-03-25T09:51:14;99401.31;;;12.88;71.91
32131;BME280;18639;50.716;7.086;2023-03-25T09:54:07;99406.81;;;12.75;73.24
32131;BME280;18639;50.716;7.086;2023-03-25T09:56:41;99395.06;;;12.71;73.53
32131;BME280;18639;50.716;7.086;2023-03-25T09:59:14;99409.94;;;12.79;72.42
32131;BME280;18639;50.716;7.086;2023-03-25T10:04:57;99404.63;;;12.80;72.07
32131;BME280;18639;50.716;7.086;2023-03-25T10:07:43;99403.25;;;12.76;71.94
32131;BME280;18639;50.716;7.086;2023-03-25T10:10:43;99412.13;;;13.22;71.14
32131;BME280;18639;50.716;7.086;2023-03-25T10:13:26;99412.25;;;13.39;68.09
32131;BME280;18639;50.716;7.086;2023-03-25T10:18:42;99415.44;;;13.70;66.52
32131;BME280;18639;50.716;7.086;2023-03-25T10:21:31;99420.38;;;14.01;66.50
32131;BME280;18639;50.716;7.086;2023-03-25T10:24:21;99421.16;;;13.83;66.75
32131;BME280;18639;50.716;7.086;2023-03-25T10:27:01;99431.88;;;13.52;67.81
32131;BME280;18639;50.716;7.086;2023-03-25T10:29:42;99425.47;;;13.46;72.86
32131;BME280;18639;50.716;7.086;2023-03-25T10:32:27;99432.69;;;13.52;72.55
32131;BME280;18639;50.716;7.086;2023-03-25T10:34:54;99425.34;;;13.38;77.51
32131;BME280;18639;50.716;7.086;2023-03-25T10:37:27;99406.72;;;13.99;78.82
32131;BME280;18639;50.716;7.086;2023-03-25T10:39:56;99415.09;;;14.47;72.28
32131;BME280;18639;50.716;7.086;2023-03-25T10:42:39;99407.91;;;14.94;71.30
32131;BME280;18639;50.716;7.086;2023-03-25T10:45:13;99430.44;;;15.47;67.21
32131;BME280;18639;50.716;7.086;2023-03-25T10:47:42;99415.41;;;15.41;63.68
32131;BME280;18639;50.716;7.086;2023-03-25T10:50:16;99375.06;;;15.19;62.85
32131;BME280;18639;50.716;7.086;2023-03-25T10:52:43;99400.50;;;15.25;63.95
32131;BME280;18639;50.716;7.086;2023-03-25T10:55:22;99416.44;;;15.22;61.74
32131;BME280;18639;50.716;7.086;2023-03-25T10:57:49;99426.63;;;14.98;62.59
32131;BME280;18639;50.716;7.086;2023-03-25T11:00:16;99411.56;;;14.84;63.31
32131;BME280;18639;50.716;7.086;2023-03-25T11:02:43;99407.00;;;14.86;63.79
32131;BME280;18639;50.716;7.086;2023-03-25T11:05:10;99418.16;;;14.78;61.73
32131;BME280;18639;50.716;7.086;2023-03-25T11:07:41;99424.28;;;14.69;62.74
32131;BME280;18639;50.716;7.086;2023-03-25T11:12:40;99424.13;;;14.43;61.85
32131;BME280;18639;50.716;7.086;2023-03-25T11:15:24;99424.09;;;14.25;62.11
32131;BME280;18639;50.716;7.086;2023-03-25T11:18:27;99398.47;;;14.30;60.66
32131;BME280;18639;50.716;7.086;2023-03-25T11:21:02;99414.22;;;14.29;63.52
32131;BME280;18639;50.716;7.086;2023-03-25T11:26:03;99429.44;;;14.24;62.42
32131;BME280;18639;50.716;7.086;2023-03-25T11:28:41;99413.72;;;14.16;62.54
32131;BME280;18639;50.716;7.086;2023-03-25T11:33:37;99408.94;;;14.21;62.87
32131;BME280;18639;50.716;7.086;2023-03-25T11:36:10;99415.81;;;14.12;61.04
32131;BME280;18639;50.716;7.086;2023-03-25T11:38:38;99390.13;;;14.09;61.12
32131;BME280;18639;50.716;7.086;2023-03-25T11:41:04;99404.69;;;13.93;61.10
32131;BME280;18639;50.716;7.086;2023-03-25T11:43:34;99406.81;;;14.07;62.30
32131;BME280;18639;50.716;7.086;2023-03-25T11:46:27;99441.91;;;13.83;60.34
32131;BME280;18639;50.716;7.086;2023-03-25T11:48:52;99417.34;;;13.68;61.28
32131;BME280;18639;50.716;7.086;2023-03-25T11:51:23;99420.41;;;13.54;61.23
32131;BME280;18639;50.716;7.086;2023-03-25T11:54:10;99396.66;;;13.49;63.59
32131;BME280;18639;50.716;7.086;2023-03-25T11:56:41;99399.50;;;13.56;63.85
32131;BME280;18639;50.716;7.086;2023-03-25T11:59:20;99382.81;;;13.58;63.61
32131;BME280;18639;50.716;7.086;2023-03-25T12:01:48;99389.97;;;13.83;62.91
32131;BME280;18639;50.716;7.086;2023-03-25T12:04:21;99391.84;;;13.91;62.82
32131;BME280;18639;50.716;7.086;2023-03-25T12:06:52;99397.66;;;14.03;61.18
32131;BME280;18639;50.716;7.086;2023-03-25T12:09:18;99405.13;;;13.88;60.75
32131;BME280;18639;50.716;7.086;2023-03-25T12:12:15;99414.88;;;13.76;60.31
32131;BME280;18639;50.716;7.086;2023-03-25T12:20:33;99425.38;;;13.19;84.03
32131;BME280;18639;50.716;7.086;2023-03-25T12:23:23;99434.75;;;13.10;83.75
32131;BME280;18639;50.716;7.086;2023-03-25T12:32:28;99421.41;;;13.15;75.03
32131;BME280;18639;50.716;7.086;2023-03-25T12:35:14;99412.81;;;13.24;72.10
32131;BME280;18639;50.716;7.086;2023-03-25T12:40:43;99393.88;;;13.60;71.28
32131;BME280;18639;50.716;7.086;2023-03-25T12:43:28;99376.19;;;13.46;70.00
32131;BME280;18639;50.716;7.086;2023-03-25T12:48:52;99378.31;;;13.60;66.00
32131;BME280;18639;50.716;7.086;2023-03-25T12:56:26;99352.59;;;13.57;64.42
32131;BME280;18639;50.716;7.086;2023-03-25T13:01:50;99369.00;;;13.67;60.53
32131;BME280;18639;50.716;7.086;2023-03-25T13:07:10;99378.25;;;13.70;61.89
32131;BME280;18639;50.716;7.086;2023-03-25T13:12:34;99349.91;;;13.49;61.40
32131;BME280;18639;50.716;7.086;2023-03-25T13:15:21;99367.91;;;13.60;61.26
32131;BME280;18639;50.716;7.086;2023-03-25T13:18:04;99356.00;;;13.67;60.52
32131;BME280;18639;50.716;7.086;2023-03-25T13:20:36;99352.44;;;13.68;58.46
32131;BME280;18639;50.716;7.086;2023-03-25T13:23:05;99345.72;;;13.75;59.70
32131;BME280;18639;50.716;7.086;2023-03-25T13:25:57;99355.59;;;13.99;57.62
32131;BME280;18639;50.716;7.086;2023-03-25T13:28:27;99347.56;;;14.10;54.59
32131;BME280;18639;50.716;7.086;2023-03-25T13:31:05;99343.47;;;14.35;55.40
32131;BME280;18639;50.716;7.086;2023-03-25T13:33:38;99358.88;;;14.46;54.38
32131;BME280;18639;50.716;7.086;2023-03-25T13:36:14;99340.69;;;14.46;53.24
32131;BME280;18639;50.716;7.086;2023-03-25T13:38:50;99351.81;;;14.56;53.25
32131;BME280;18639;50.716;7.086;2023-03-25T13:41:22;99341.78;;;14.61;53.77
32131;BME280;18639;50.716;7.086;2023-03-25T13:44:21;99336.34;;;14.37;52.78
32131;BME280;18639;50.716;7.086;2023-03-25T13:47:00;99342.31;;;14.47;53.37
32131;BME280;18639;50.716;7.086;2023-03-25T13:49:32;99328.13;;;14.42;51.91
32131;BME280;18639;50.716;7.086;2023-03-25T13:51:59;99311.38;;;14.09;53.04
32131;BME280;18639;50.716;7.086;2023-03-25T13:54:31;99328.81;;;14.16;53.08
32131;BME280;18639;50.716;7.086;2023-03-25T13:57:13;99329.31;;;14.02;54.37
32131;BME280;18639;50.716;7.086;2023-03-25T14:13:42;99367.63;;;13.63;56.69
32131;BME280;18639;50.716;7.086;2023-03-25T14:16:12;99382.97;;;13.47;57.76
32131;BME280;18639;50.716;7.086;2023-03-25T14:18:45;99414.72;;;13.22;62.04
32131;BME280;18639;50.716;7.086;2023-03-25T14:23:39;99422.81;;;12.31;85.72
32131;BME280;18639;50.716;7.086;2023-03-25T14:26:05;99416.03;;;12.39;91.85
32131;BME280;18639;50.716;7.086;2023-03-25T14:28:39;99396.50;;;12.26;91.14
32131;BME280;18639;50.716;7.086;2023-03-25T14:31:15;99398.97;;;12.37;96.79
32131;BME280;18639;50.716;7.086;2023-03-25T14:39:09;99408.63;;;12.35;91.99
32131;BME280;18639;50.716;7.086;2023-03-25T14:41:58;99422.59;;;12.53;94.52
32131;BME280;18639;50.716;7.086;2023-03-25T14:44:25;99410.03;;;12.48;91.07
32131;BME280;18639;50.716;7.086;2023-03-25T14:52:57;99401.84;;;12.43;88.74
32131;BME280;18639;50.716;7.086;2023-03-25T14:55:30;99409.34;;;12.46;86.89
32131;BME280;18639;50.716;7.086;2023-03-25T14:57:59;99398.03;;;12.38;82.50
32131;BME280;18639;50.716;7.086;2023-03-25T15:00:29;99388.31;;;12.40;86.20
32131;BME280;18639;50.716;7.086;2023-03-25T15:03:04;99384.94;;;12.39;81.02